Thompson, ND (58278)

10:44 PM CDT on July 30, 2016 (GMT -0500)
APRSWXNET | | Change Station

Elev 846 ft 47.89 °N, 97.16 °W | Updated 26 minutes ago

Scattered Clouds
Scattered Clouds
69 °F
Feels Like 69 °F
N
1
Wind Variable Wind from SW
Gusts 0.0 mph

Today
High -- | Low -- °F
--% Chance of Precip.
Yesterday
High -- | Low -- °F
Precip. -- in
Pressure 29.88 in
Visibility 10.0 miles
Clouds Few 15000 ft
Scattered Clouds 25000 ft
Dew Point 62 °F
Humidity 78%
Rainfall in
Snow Depth Not available.
6:03 AM 9:05 PM
Waning Crescent, 9% visible
METAR KGFK 310253Z 16010KT 10SM FEW150 SCT250 23/16 A2988 RMK AO2 SLP117 T02280156 53001
Pressure 29.88 in
Visibility 10.0 miles
Clouds Few 15000 ft
Scattered Clouds 25000 ft
Dew Point 62 °F
Humidity 78%
Rainfall in
Snow Depth Not available.
6:03 AM 9:05 PM
Waning Crescent, 9% visible
METAR KGFK 310253Z 16010KT 10SM FEW150 SCT250 23/16 A2988 RMK AO2 SLP117 T02280156 53001

10-Day Weather Forecast

Almanac

Astronomy

Jul. 30, 2016 Rise Set
Actual Time
Civil Twilight
Nautical Twilight
Astronomical Twilight
Moon
Length of Visible Light
Length of Day
Tomorrow will be .
, % of the Moon is Illuminated

Today's Extremes

State Highs State Lows

Community

WunderPhotos

Upload Photos

1,928,738 photos uploaded!

WunderBlog® & News

Nearby

Air Quality

  Air Quality AQ Index Pollutant
Not available.

Snow Depth

Station Depth Elevation

Earthquake Activity

City Distance Mag. Time & Date
Minimum magnitude displayed is 2.5.

Coastal Water Temperatures

Place Temperature

Stations

Nearby Weather Stations

Station Location Temp. Windchill Dew Point Humidity Wind Precip. Elev Updated Type
                   

Watches & Warnings

There are currently no watches in effect.